createdAt,value
2018-02-19T00:00:37.952Z,70.83
2018-02-19T00:03:06.500Z,68.73
2018-02-19T00:05:35.861Z,65.43
2018-02-19T00:08:04.416Z,60.67
2018-02-19T00:10:32.978Z,62.07
2018-02-19T00:13:01.577Z,57.93
2018-02-19T00:15:30.128Z,54.23
2018-02-19T00:17:59.452Z,55.13
2018-02-19T00:20:28.144Z,55.63
2018-02-19T00:22:56.700Z,54.00
2018-02-19T00:25:26.045Z,55.73
2018-02-19T00:27:54.792Z,55.23
2018-02-19T00:30:24.112Z,55.23
2018-02-19T00:32:52.669Z,55.83
2018-02-19T00:35:22.048Z,57.53
2018-02-19T00:37:50.620Z,58.93
2018-02-19T00:40:19.173Z,55.77
2018-02-19T00:42:47.778Z,58.20
2018-02-19T00:45:16.332Z,56.50
2018-02-19T00:47:44.887Z,60.13
2018-02-19T00:50:13.487Z,59.13
2018-02-19T00:52:42.046Z,60.10
2018-02-19T00:55:10.600Z,63.50
2018-02-19T00:57:39.493Z,68.07
2018-02-19T01:00:08.076Z,72.83
2018-02-19T01:02:36.633Z,67.63
2018-02-19T01:05:05.242Z,67.87
2018-02-19T01:07:33.800Z,65.07
2018-02-19T01:10:02.373Z,60.67
2018-02-19T01:12:31.133Z,63.10
2018-02-19T01:15:00.457Z,57.70
2018-02-19T01:17:29.008Z,56.03
2018-02-19T01:19:59.223Z,56.77
2018-02-19T01:22:27.780Z,57.17
2018-02-19T01:24:56.339Z,58.33
2018-02-19T01:27:25.155Z,60.00
2018-02-19T01:29:53.712Z,58.03
2018-02-19T01:32:22.272Z,61.17
2018-02-19T01:34:51.933Z,58.17
2018-02-19T01:37:20.487Z,56.97
2018-02-19T01:39:49.106Z,54.57
2018-02-19T01:42:17.806Z,53.20
2018-02-19T01:44:46.373Z,51.03
2018-02-19T01:47:14.940Z,52.67
2018-02-19T01:50:01.358Z,56.20
2018-02-19T01:52:29.916Z,55.87
2018-02-19T01:54:58.472Z,55.90
2018-02-19T01:57:27.848Z,54.20
2018-02-19T01:59:57.179Z,54.47
2018-02-19T02:02:25.732Z,51.07
2018-02-19T02:04:54.476Z,52.40
2018-02-19T02:07:23.029Z,50.70
2018-02-19T02:09:51.576Z,47.07
2018-02-19T02:12:20.169Z,45.47
2018-02-19T02:14:48.724Z,45.37
2018-02-19T02:17:17.273Z,43.40
2018-02-19T02:19:46.036Z,43.83
2018-02-19T02:22:15.347Z,44.00
2018-02-19T02:24:43.904Z,42.93
2018-02-19T02:27:12.544Z,41.50
2018-02-19T02:29:41.101Z,41.67
2018-02-19T02:32:09.657Z,42.60
2018-02-19T02:34:38.412Z,40.77
2018-02-19T02:37:06.969Z,39.67
2018-02-19T02:39:35.524Z,43.97
2018-02-19T02:42:05.186Z,43.20
2018-02-19T02:44:33.736Z,41.47
2018-02-19T02:47:02.293Z,42.63
2018-02-19T02:49:31.661Z,44.00
2018-02-19T02:52:00.214Z,42.93
2018-02-19T02:54:28.765Z,44.03
2018-02-19T02:56:58.134Z,45.67
2018-02-19T02:59:26.682Z,46.13
2018-02-19T03:01:55.234Z,46.97
2018-02-19T03:04:24.688Z,48.83
2018-02-19T03:06:53.235Z,51.47
2018-02-19T03:09:21.796Z,51.83
2018-02-19T03:11:51.264Z,52.63
2018-02-19T03:14:19.884Z,51.93
2018-02-19T03:16:49.197Z,47.10
2018-02-19T03:19:18.757Z,57.67
2018-02-19T03:21:47.307Z,55.30
2018-02-19T03:24:15.864Z,59.57
2018-02-19T03:26:45.625Z,52.37
2018-02-19T03:29:14.224Z,51.40
2018-02-19T03:31:42.780Z,51.33
2018-02-19T03:34:11.584Z,53.57
2018-02-19T03:36:40.140Z,53.77
2018-02-19T03:39:08.709Z,56.07
2018-02-19T03:41:37.639Z,46.67
2018-02-19T03:44:06.195Z,45.07
2018-02-19T03:46:34.776Z,40.70
2018-02-19T03:49:03.376Z,38.20
2018-02-19T03:51:31.927Z,52.73
2018-02-19T03:54:01.246Z,44.33
2018-02-19T03:56:29.860Z,37.77
2018-02-19T03:58:58.409Z,39.00
2018-02-19T04:01:26.960Z,43.83
2018-02-19T04:03:56.439Z,39.00
2018-02-19T04:06:24.996Z,48.70
2018-02-19T04:08:53.549Z,44.20
2018-02-19T04:11:22.380Z,40.07
2018-02-19T04:13:50.937Z,41.80
2018-02-19T04:16:19.489Z,37.60
2018-02-19T04:18:48.852Z,37.63
2018-02-19T04:21:17.407Z,36.67
2018-02-19T04:23:45.967Z,37.03
2018-02-19T04:26:15.425Z,36.90
2018-02-19T04:28:43.973Z,34.27
2018-02-19T04:31:12.520Z,35.73
2018-02-19T04:33:41.892Z,34.20
2018-02-19T04:36:10.437Z,36.73
2018-02-19T04:38:38.984Z,36.97
2018-02-19T04:41:08.347Z,36.13
2018-02-19T04:43:36.928Z,35.30
2018-02-19T04:46:17.278Z,33.00
2018-02-19T04:48:45.826Z,32.83
2018-02-19T04:51:15.137Z,36.30
2018-02-19T04:53:44.678Z,31.13
2018-02-19T04:56:13.228Z,31.53
2018-02-19T04:58:41.776Z,41.77
2018-02-19T05:01:10.385Z,35.50
2018-02-19T05:03:38.937Z,43.73
2018-02-19T05:12:52.753Z,33.70
2018-02-19T05:15:22.068Z,29.57
2018-02-19T05:17:50.615Z,32.37
2018-02-19T05:20:20.193Z,30.87
2018-02-19T05:22:48.744Z,30.87
2018-02-19T05:25:17.293Z,39.63
2018-02-19T05:27:45.932Z,39.87
2018-02-19T05:30:16.928Z,31.87
2018-02-19T05:32:46.565Z,30.20
2018-02-19T05:35:15.112Z,28.80
2018-02-19T05:37:43.662Z,28.67
2018-02-19T05:40:13.033Z,24.20
2018-02-19T05:42:41.580Z,26.80
2018-02-19T05:45:10.146Z,27.17
2018-02-19T05:47:39.546Z,26.17
2018-02-19T05:50:08.857Z,20.93
2018-02-19T05:52:37.577Z,24.23
2018-02-19T05:55:06.204Z,25.83
2018-02-19T05:57:35.576Z,24.60
2018-02-19T06:00:04.372Z,23.70
2018-02-19T06:02:33.394Z,25.07
2018-02-19T06:05:02.708Z,23.53
2018-02-19T06:07:32.021Z,21.13
2018-02-19T06:10:00.769Z,23.10
2018-02-19T06:12:29.363Z,21.50
2018-02-19T06:14:57.916Z,24.27
2018-02-19T06:17:26.541Z,23.60
2018-02-19T06:19:55.861Z,22.70
2018-02-19T06:22:24.425Z,24.90
2018-02-19T06:24:53.797Z,22.27
2018-02-19T06:27:22.353Z,20.83
2018-02-19T06:29:50.921Z,24.07
2018-02-19T06:32:19.529Z,23.67
2018-02-19T06:34:48.080Z,22.20
2018-02-19T06:37:16.633Z,24.23
2018-02-19T06:39:46.408Z,24.80
2018-02-19T06:42:14.960Z,22.90
2018-02-19T06:44:43.518Z,25.67
2018-02-19T06:47:12.891Z,24.30
2018-02-19T06:49:41.453Z,23.57
2018-02-19T06:52:10.004Z,23.13
2018-02-19T06:54:38.623Z,23.67
2018-02-19T06:57:07.177Z,23.60
2018-02-19T06:59:35.734Z,24.27
2018-02-19T07:02:05.108Z,23.40
2018-02-19T07:04:33.674Z,23.67
2018-02-19T07:07:02.228Z,23.77
2018-02-19T07:09:30.842Z,23.87
2018-02-19T07:11:59.406Z,23.93
2018-02-19T07:14:27.984Z,22.83
2018-02-19T07:16:56.586Z,23.70
2018-02-19T07:19:25.145Z,22.53
2018-02-19T07:21:53.697Z,23.13
2018-02-19T07:24:23.061Z,23.83
2018-02-19T07:26:51.613Z,25.17
2018-02-19T07:29:20.170Z,23.97
2018-02-19T07:31:49.636Z,25.93
2018-02-19T07:34:18.194Z,23.47
2018-02-19T07:36:46.749Z,23.40
2018-02-19T07:39:15.444Z,25.97
2018-02-19T07:41:44.001Z,23.30
2018-02-19T07:44:13.359Z,23.20
2018-02-19T07:46:42.358Z,23.47
2018-02-19T07:49:10.916Z,25.30
2018-02-19T07:51:39.473Z,23.63
2018-02-19T07:54:08.840Z,27.63
2018-02-19T07:56:37.401Z,23.33
2018-02-19T07:59:05.952Z,25.43
2018-02-19T08:01:34.567Z,22.90
2018-02-19T08:04:03.118Z,21.30
2018-02-19T08:06:31.668Z,20.50
2018-02-19T08:09:00.264Z,21.17
2018-02-19T08:11:29.588Z,19.60
2018-02-19T08:13:58.137Z,20.10
2018-02-19T08:16:27.520Z,20.17
2018-02-19T08:18:56.077Z,23.10
2018-02-19T08:21:24.629Z,19.90
2018-02-19T08:23:53.272Z,23.00
2018-02-19T08:26:21.833Z,22.00
2018-02-19T08:28:50.418Z,20.87
2018-02-19T08:31:19.014Z,22.83
2018-02-19T08:33:47.569Z,23.70
2018-02-19T08:36:16.124Z,22.57
2018-02-19T08:38:45.484Z,23.53
2018-02-19T08:41:14.044Z,23.60
2018-02-19T08:43:42.596Z,26.00
2018-02-19T08:46:11.973Z,23.57
2018-02-19T08:48:40.551Z,25.07
2018-02-19T08:51:09.107Z,26.90
2018-02-19T08:53:37.709Z,26.47
2018-02-19T08:56:06.270Z,27.00
2018-02-19T08:58:34.821Z,26.33
2018-02-19T09:01:03.641Z,28.30
2018-02-19T09:03:32.193Z,25.27
2018-02-19T09:06:00.752Z,25.70
2018-02-19T09:08:30.124Z,25.83
2018-02-19T09:10:58.728Z,25.37
2018-02-19T09:13:27.276Z,26.50
2018-02-19T09:15:55.873Z,23.90
2018-02-19T09:18:24.424Z,25.53
2018-02-19T09:20:52.978Z,23.57
2018-02-19T09:23:22.441Z,27.43
2018-02-19T09:25:50.997Z,24.47
2018-02-19T09:28:19.552Z,27.03
2018-02-19T09:30:49.089Z,25.93
2018-02-19T09:33:17.648Z,24.27
2018-02-19T09:35:46.201Z,26.17
2018-02-19T09:38:14.808Z,23.37
2018-02-19T09:40:44.127Z,25.77
2018-02-19T09:43:12.681Z,24.67
2018-02-19T09:45:42.137Z,26.77
2018-02-19T09:48:10.693Z,25.60
2018-02-19T09:50:39.250Z,24.53
2018-02-19T09:53:08.733Z,23.93
2018-02-19T09:55:37.298Z,26.23
2018-02-19T09:58:05.855Z,24.60
2018-02-19T10:00:34.457Z,26.60
2018-02-19T10:03:03.004Z,27.53
2018-02-19T10:05:32.336Z,21.73
2018-02-19T10:08:00.966Z,28.37
2018-02-19T10:10:29.522Z,26.67
2018-02-19T10:12:58.081Z,27.30
2018-02-19T10:15:26.688Z,25.07
2018-02-19T10:17:55.244Z,25.90
2018-02-19T10:20:23.800Z,24.80
2018-02-19T10:22:53.552Z,23.80
2018-02-19T10:25:22.109Z,25.63
2018-02-19T10:27:50.657Z,25.13
2018-02-19T10:30:20.915Z,25.30
2018-02-19T10:32:49.473Z,25.73
2018-02-19T10:35:18.792Z,25.53
2018-02-19T10:37:47.618Z,27.83
2018-02-19T10:40:16.166Z,25.83
2018-02-19T10:42:44.719Z,22.67
2018-02-19T10:45:13.469Z,25.37
2018-02-19T10:47:42.024Z,20.17
2018-02-19T10:50:10.579Z,17.60
2018-02-19T10:52:40.140Z,16.77
2018-02-19T10:55:09.461Z,16.17
2018-02-19T10:57:38.026Z,15.47
2018-02-19T11:00:06.673Z,14.90
2018-02-19T11:02:35.228Z,14.40
2018-02-19T11:05:04.557Z,10.50
2018-02-19T11:07:33.301Z,14.87
2018-02-19T11:10:01.864Z,14.10
2018-02-19T11:12:30.421Z,13.07
2018-02-19T11:14:59.030Z,13.47
2018-02-19T11:17:27.589Z,14.63
2018-02-19T11:19:56.151Z,13.23
2018-02-19T11:22:25.702Z,14.83
2018-02-19T11:24:54.253Z,15.00
2018-02-19T11:27:22.833Z,11.90
2018-02-19T11:29:51.490Z,13.80
2018-02-19T11:32:20.037Z,14.53
2018-02-19T11:34:48.628Z,14.63
2018-02-19T11:37:17.232Z,15.17
2018-02-19T11:39:45.791Z,14.43
2018-02-19T11:42:14.345Z,14.73
2018-02-19T11:44:42.953Z,15.30
2018-02-19T11:47:11.510Z,15.03
2018-02-19T11:49:40.069Z,16.47
2018-02-19T11:52:09.541Z,14.70
2018-02-19T11:54:38.122Z,16.00
2018-02-19T11:57:06.691Z,15.70
2018-02-19T11:59:35.484Z,14.83
2018-02-19T12:02:04.033Z,17.60
2018-02-19T12:04:32.593Z,16.70
2018-02-19T12:07:02.138Z,15.80
2018-02-19T12:09:30.700Z,17.33
2018-02-19T12:11:59.257Z,15.93
2018-02-19T12:14:28.947Z,16.33
2018-02-19T12:16:57.525Z,16.03
2018-02-19T12:19:26.150Z,16.50
2018-02-19T12:21:54.762Z,15.50
2018-02-19T12:24:23.361Z,15.00
2018-02-19T12:26:51.921Z,15.23
2018-02-19T12:29:20.733Z,15.03
2018-02-19T12:31:49.381Z,14.90
2018-02-19T12:34:17.933Z,14.93
2018-02-19T12:36:48.145Z,15.80
2018-02-19T12:39:16.705Z,15.57
2018-02-19T12:41:45.265Z,13.83
2018-02-19T12:44:13.881Z,14.17
2018-02-19T12:46:42.445Z,14.67
2018-02-19T12:49:11.004Z,16.40
2018-02-19T12:51:39.831Z,13.93
2018-02-19T12:54:08.392Z,14.90
2018-02-19T12:56:36.958Z,13.07
2018-02-19T12:59:05.666Z,13.60
2018-02-19T13:01:34.226Z,13.73
2018-02-19T13:04:02.781Z,15.20
2018-02-19T13:06:32.249Z,14.73
2018-02-19T13:09:00.800Z,12.87
2018-02-19T13:11:29.368Z,13.23
2018-02-19T13:13:58.744Z,13.20
2018-02-19T13:16:27.304Z,12.23
2018-02-19T13:18:55.856Z,16.27
2018-02-19T13:21:24.472Z,28.17
2018-02-19T21:06:47.553Z,6.17
2018-02-19T21:09:16.100Z,5.67
2018-02-19T21:11:44.644Z,5.83
2018-02-19T21:14:13.252Z,6.30
2018-02-19T21:16:42.569Z,6.43
2018-02-19T21:21:19.669Z,5.40
2018-02-19T21:23:48.221Z,5.90
2018-02-19T21:26:17.545Z,6.53
2018-02-19T21:28:46.908Z,6.57
2018-02-19T21:31:15.473Z,7.40
2018-02-19T21:33:44.028Z,7.40
2018-02-19T21:36:12.631Z,7.67
2018-02-19T21:38:41.183Z,7.73
2018-02-19T21:41:09.732Z,7.23
2018-02-19T21:43:38.348Z,8.27
2018-02-19T21:46:06.930Z,9.57
2018-02-19T21:48:35.512Z,8.93
2018-02-19T21:51:04.447Z,10.20
2018-02-19T21:53:33.330Z,11.30
2018-02-19T21:56:01.896Z,12.40
2018-02-19T21:58:30.514Z,12.80
2018-02-19T22:00:59.089Z,13.23
2018-02-19T22:03:27.645Z,16.53
2018-02-19T22:05:56.352Z,16.30
2018-02-19T22:08:24.791Z,15.00
2018-02-19T22:10:53.996Z,16.40
2018-02-19T22:13:22.812Z,16.27
2018-02-19T22:15:51.247Z,16.07
2018-02-19T22:18:19.686Z,17.50
2018-02-19T22:20:48.346Z,17.17
2018-02-19T22:23:16.770Z,17.97
2018-02-19T22:25:45.197Z,15.27
2018-02-19T22:28:13.824Z,14.83
2018-02-19T22:30:42.269Z,17.97
2018-02-19T22:33:10.703Z,17.80
2018-02-19T22:35:39.543Z,19.23
2018-02-19T22:38:07.982Z,21.53
2018-02-19T22:40:37.187Z,21.70
2018-02-19T22:43:05.691Z,20.20
2018-02-19T22:45:34.122Z,22.33
2018-02-19T22:48:02.555Z,22.13
2018-02-19T22:50:31.027Z,21.30
2018-02-19T22:53:00.223Z,22.43
2018-02-19T22:55:28.655Z,19.20
2018-02-19T22:57:57.255Z,20.57
2018-02-19T23:00:25.699Z,19.67
2018-02-19T23:02:54.126Z,19.53
2018-02-19T23:05:22.602Z,16.73
2018-02-19T23:07:51.038Z,16.00
2018-02-19T23:10:19.471Z,16.67
2018-02-19T23:12:48.902Z,16.30
2018-02-19T23:15:17.342Z,15.90
2018-02-19T23:17:45.772Z,14.97
2018-02-19T23:20:14.700Z,16.67
2018-02-19T23:22:43.206Z,16.10
2018-02-19T23:25:12.402Z,16.20
2018-02-19T23:27:41.656Z,15.77
2018-02-19T23:30:10.096Z,15.83
2018-02-19T23:32:39.295Z,16.23
2018-02-19T23:35:09.030Z,16.37
2018-02-19T23:37:37.518Z,15.67
2018-02-19T23:40:05.954Z,16.17
2018-02-19T23:42:35.405Z,14.70
2018-02-19T23:45:04.172Z,16.23
2018-02-19T23:47:32.608Z,15.57
2018-02-19T23:50:02.228Z,16.33
2018-02-19T23:52:30.671Z,17.07
2018-02-19T23:54:59.136Z,18.17
2018-02-19T23:57:27.713Z,16.97
2018-02-19T23:59:56.154Z,16.50
